sensor_id;sensor_type;location;lat;lon;timestamp;P1;durP1;ratioP1;P2;durP2;ratioP2
35558;SDS011;21661;50.794;-1.066;2023-04-10T00:02:08;22.15;;;10.43;;
35558;SDS011;21661;50.794;-1.066;2023-04-10T00:04:34;22.58;;;10.43;;
35558;SDS011;21661;50.794;-1.066;2023-04-10T00:06:59;24.70;;;10.27;;
35558;SDS011;21661;50.794;-1.066;2023-04-10T00:09:25;22.60;;;11.15;;
35558;SDS011;21661;50.794;-1.066;2023-04-10T00:11:51;23.48;;;12.10;;
35558;SDS011;21661;50.794;-1.066;2023-04-10T00:14:16;22.98;;;11.85;;
35558;SDS011;21661;50.794;-1.066;2023-04-10T00:16:47;24.88;;;12.35;;
35558;SDS011;21661;50.794;-1.066;2023-04-10T00:19:13;22.88;;;11.55;;
35558;SDS011;21661;50.794;-1.066;2023-04-10T00:21:39;24.70;;;12.05;;
35558;SDS011;21661;50.794;-1.066;2023-04-10T00:24:05;24.35;;;13.05;;
35558;SDS011;21661;50.794;-1.066;2023-04-10T00:26:30;25.10;;;12.45;;
35558;SDS011;21661;50.794;-1.066;2023-04-10T00:28:56;29.73;;;12.55;;
35558;SDS011;21661;50.794;-1.066;2023-04-10T00:31:21;26.77;;;13.55;;
35558;SDS011;21661;50.794;-1.066;2023-04-10T00:33:47;28.73;;;13.00;;
35558;SDS011;21661;50.794;-1.066;2023-04-10T00:36:13;26.67;;;12.98;;
35558;SDS011;21661;50.794;-1.066;2023-04-10T00:38:38;23.98;;;11.70;;
35558;SDS011;21661;50.794;-1.066;2023-04-10T00:41:04;26.90;;;11.82;;
35558;SDS011;21661;50.794;-1.066;2023-04-10T00:43:30;21.23;;;11.35;;
35558;SDS011;21661;50.794;-1.066;2023-04-10T00:45:56;25.85;;;10.50;;
35558;SDS011;21661;50.794;-1.066;2023-04-10T00:48:21;19.85;;;10.43;;
35558;SDS011;21661;50.794;-1.066;2023-04-10T00:50:47;28.08;;;11.30;;
35558;SDS011;21661;50.794;-1.066;2023-04-10T00:53:13;21.00;;;12.20;;
35558;SDS011;21661;50.794;-1.066;2023-04-10T00:55:38;25.45;;;10.95;;
35558;SDS011;21661;50.794;-1.066;2023-04-10T00:58:04;25.48;;;11.48;;
35558;SDS011;21661;50.794;-1.066;2023-04-10T01:00:30;28.15;;;11.57;;
35558;SDS011;21661;50.794;-1.066;2023-04-10T01:02:56;28.85;;;12.30;;
35558;SDS011;21661;50.794;-1.066;2023-04-10T01:05:24;28.75;;;11.98;;
35558;SDS011;21661;50.794;-1.066;2023-04-10T01:08:06;22.75;;;11.43;;
35558;SDS011;21661;50.794;-1.066;2023-04-10T01:10:42;22.35;;;11.95;;
35558;SDS011;21661;50.794;-1.066;2023-04-10T01:13:23;22.83;;;10.63;;
35558;SDS011;21661;50.794;-1.066;2023-04-10T01:16:01;24.67;;;11.25;;
35558;SDS011;21661;50.794;-1.066;2023-04-10T01:18:34;27.02;;;11.50;;
35558;SDS011;21661;50.794;-1.066;2023-04-10T01:21:20;18.23;;;10.20;;
35558;SDS011;21661;50.794;-1.066;2023-04-10T01:23:53;19.35;;;9.50;;
35558;SDS011;21661;50.794;-1.066;2023-04-10T01:26:55;20.42;;;10.25;;
35558;SDS011;21661;50.794;-1.066;2023-04-10T01:29:33;21.50;;;10.13;;
35558;SDS011;21661;50.794;-1.066;2023-04-10T01:32:01;16.73;;;9.65;;
35558;SDS011;21661;50.794;-1.066;2023-04-10T01:34:34;21.33;;;10.60;;
35558;SDS011;21661;50.794;-1.066;2023-04-10T01:37:14;20.98;;;11.27;;
35558;SDS011;21661;50.794;-1.066;2023-04-10T01:39:45;21.05;;;10.93;;
35558;SDS011;21661;50.794;-1.066;2023-04-10T01:42:15;16.97;;;9.53;;
35558;SDS011;21661;50.794;-1.066;2023-04-10T01:44:41;18.77;;;11.23;;
35558;SDS011;21661;50.794;-1.066;2023-04-10T01:47:10;20.80;;;10.73;;
35558;SDS011;21661;50.794;-1.066;2023-04-10T01:49:40;20.20;;;10.75;;
35558;SDS011;21661;50.794;-1.066;2023-04-10T01:52:11;15.05;;;10.00;;
35558;SDS011;21661;50.794;-1.066;2023-04-10T01:54:38;22.42;;;11.77;;
35558;SDS011;21661;50.794;-1.066;2023-04-10T01:57:07;24.23;;;10.32;;
35558;SDS011;21661;50.794;-1.066;2023-04-10T01:59:35;18.13;;;10.65;;
35558;SDS011;21661;50.794;-1.066;2023-04-10T02:02:02;17.85;;;10.13;;
35558;SDS011;21661;50.794;-1.066;2023-04-10T02:04:28;18.25;;;9.90;;
35558;SDS011;21661;50.794;-1.066;2023-04-10T02:07:10;16.23;;;9.20;;
35558;SDS011;21661;50.794;-1.066;2023-04-10T02:09:44;19.13;;;10.57;;
35558;SDS011;21661;50.794;-1.066;2023-04-10T02:12:15;18.52;;;9.82;;
35558;SDS011;21661;50.794;-1.066;2023-04-10T02:14:44;23.58;;;10.35;;
35558;SDS011;21661;50.794;-1.066;2023-04-10T02:17:12;17.38;;;10.07;;
35558;SDS011;21661;50.794;-1.066;2023-04-10T02:19:42;17.88;;;10.27;;
35558;SDS011;21661;50.794;-1.066;2023-04-10T02:22:10;14.00;;;9.68;;
35558;SDS011;21661;50.794;-1.066;2023-04-10T02:24:36;16.60;;;8.95;;
35558;SDS011;21661;50.794;-1.066;2023-04-10T02:27:02;17.38;;;10.32;;
35558;SDS011;21661;50.794;-1.066;2023-04-10T02:29:28;15.60;;;10.13;;
35558;SDS011;21661;50.794;-1.066;2023-04-10T02:31:53;16.85;;;9.45;;
35558;SDS011;21661;50.794;-1.066;2023-04-10T02:34:19;19.33;;;9.75;;
35558;SDS011;21661;50.794;-1.066;2023-04-10T02:36:45;14.75;;;8.95;;
35558;SDS011;21661;50.794;-1.066;2023-04-10T02:39:10;18.42;;;10.15;;
35558;SDS011;21661;50.794;-1.066;2023-04-10T02:41:36;14.48;;;8.75;;
35558;SDS011;21661;50.794;-1.066;2023-04-10T02:44:02;17.42;;;9.18;;
35558;SDS011;21661;50.794;-1.066;2023-04-10T02:46:27;17.00;;;8.65;;
35558;SDS011;21661;50.794;-1.066;2023-04-10T02:48:53;15.55;;;8.98;;
35558;SDS011;21661;50.794;-1.066;2023-04-10T02:51:19;16.83;;;8.90;;
35558;SDS011;21661;50.794;-1.066;2023-04-10T02:53:45;16.70;;;9.73;;
35558;SDS011;21661;50.794;-1.066;2023-04-10T02:56:11;15.75;;;9.15;;
35558;SDS011;21661;50.794;-1.066;2023-04-10T02:58:37;21.98;;;10.10;;
35558;SDS011;21661;50.794;-1.066;2023-04-10T03:01:04;21.05;;;10.88;;
35558;SDS011;21661;50.794;-1.066;2023-04-10T03:03:31;19.38;;;11.27;;
35558;SDS011;21661;50.794;-1.066;2023-04-10T03:05:57;20.15;;;11.25;;
35558;SDS011;21661;50.794;-1.066;2023-04-10T03:08:22;21.52;;;10.60;;
35558;SDS011;21661;50.794;-1.066;2023-04-10T03:10:48;20.55;;;10.82;;
35558;SDS011;21661;50.794;-1.066;2023-04-10T03:13:14;22.33;;;10.38;;
35558;SDS011;21661;50.794;-1.066;2023-04-10T03:15:40;15.77;;;9.57;;
35558;SDS011;21661;50.794;-1.066;2023-04-10T03:18:06;15.02;;;9.07;;
35558;SDS011;21661;50.794;-1.066;2023-04-10T03:20:33;17.88;;;8.73;;
35558;SDS011;21661;50.794;-1.066;2023-04-10T03:23:01;16.83;;;7.85;;
35558;SDS011;21661;50.794;-1.066;2023-04-10T03:25:27;12.23;;;7.70;;
35558;SDS011;21661;50.794;-1.066;2023-04-10T03:27:53;11.68;;;7.00;;
35558;SDS011;21661;50.794;-1.066;2023-04-10T03:30:19;11.32;;;6.30;;
35558;SDS011;21661;50.794;-1.066;2023-04-10T03:32:45;9.80;;;6.07;;
35558;SDS011;21661;50.794;-1.066;2023-04-10T03:35:10;14.25;;;6.53;;
35558;SDS011;21661;50.794;-1.066;2023-04-10T03:37:36;16.20;;;6.85;;
35558;SDS011;21661;50.794;-1.066;2023-04-10T03:40:05;17.02;;;7.07;;
35558;SDS011;21661;50.794;-1.066;2023-04-10T03:42:33;11.75;;;6.53;;
35558;SDS011;21661;50.794;-1.066;2023-04-10T03:44:59;17.15;;;7.45;;
35558;SDS011;21661;50.794;-1.066;2023-04-10T03:47:28;15.70;;;6.88;;
35558;SDS011;21661;50.794;-1.066;2023-04-10T03:49:57;15.65;;;7.47;;
35558;SDS011;21661;50.794;-1.066;2023-04-10T03:52:25;14.50;;;7.35;;
35558;SDS011;21661;50.794;-1.066;2023-04-10T03:54:52;15.43;;;8.52;;
35558;SDS011;21661;50.794;-1.066;2023-04-10T03:57:18;19.58;;;8.02;;
35558;SDS011;21661;50.794;-1.066;2023-04-10T03:59:45;18.05;;;7.57;;
35558;SDS011;21661;50.794;-1.066;2023-04-10T04:02:13;16.73;;;7.22;;
35558;SDS011;21661;50.794;-1.066;2023-04-10T04:04:39;14.65;;;7.47;;
35558;SDS011;21661;50.794;-1.066;2023-04-10T04:07:04;14.80;;;7.75;;
35558;SDS011;21661;50.794;-1.066;2023-04-10T04:09:30;16.60;;;7.95;;
35558;SDS011;21661;50.794;-1.066;2023-04-10T04:11:56;17.88;;;7.60;;
35558;SDS011;21661;50.794;-1.066;2023-04-10T04:14:22;14.07;;;7.60;;
35558;SDS011;21661;50.794;-1.066;2023-04-10T04:16:48;14.30;;;7.60;;
35558;SDS011;21661;50.794;-1.066;2023-04-10T04:19:13;13.98;;;7.63;;
35558;SDS011;21661;50.794;-1.066;2023-04-10T04:21:39;15.65;;;7.35;;
35558;SDS011;21661;50.794;-1.066;2023-04-10T04:24:05;14.35;;;7.15;;
35558;SDS011;21661;50.794;-1.066;2023-04-10T04:26:33;13.02;;;7.32;;
35558;SDS011;21661;50.794;-1.066;2023-04-10T04:28:58;11.88;;;7.68;;
35558;SDS011;21661;50.794;-1.066;2023-04-10T04:31:24;16.05;;;7.78;;
35558;SDS011;21661;50.794;-1.066;2023-04-10T04:33:56;12.20;;;7.15;;
35558;SDS011;21661;50.794;-1.066;2023-04-10T04:36:24;15.93;;;7.78;;
35558;SDS011;21661;50.794;-1.066;2023-04-10T04:38:51;14.27;;;7.80;;
35558;SDS011;21661;50.794;-1.066;2023-04-10T04:41:17;18.42;;;8.63;;
35558;SDS011;21661;50.794;-1.066;2023-04-10T04:43:43;18.95;;;9.43;;
35558;SDS011;21661;50.794;-1.066;2023-04-10T04:46:09;21.13;;;9.77;;
35558;SDS011;21661;50.794;-1.066;2023-04-10T04:48:35;19.60;;;10.35;;
35558;SDS011;21661;50.794;-1.066;2023-04-10T04:51:00;17.33;;;9.55;;
35558;SDS011;21661;50.794;-1.066;2023-04-10T04:53:26;21.88;;;9.80;;
35558;SDS011;21661;50.794;-1.066;2023-04-10T04:55:51;17.50;;;9.77;;
35558;SDS011;21661;50.794;-1.066;2023-04-10T04:58:17;18.77;;;9.30;;
35558;SDS011;21661;50.794;-1.066;2023-04-10T05:00:44;16.40;;;8.98;;
35558;SDS011;21661;50.794;-1.066;2023-04-10T05:03:10;15.90;;;8.65;;
35558;SDS011;21661;50.794;-1.066;2023-04-10T05:05:36;16.55;;;9.07;;
35558;SDS011;21661;50.794;-1.066;2023-04-10T05:08:01;15.68;;;8.40;;
35558;SDS011;21661;50.794;-1.066;2023-04-10T05:10:27;16.17;;;9.32;;
35558;SDS011;21661;50.794;-1.066;2023-04-10T05:12:52;18.48;;;9.73;;
35558;SDS011;21661;50.794;-1.066;2023-04-10T05:15:18;19.88;;;10.13;;
35558;SDS011;21661;50.794;-1.066;2023-04-10T05:17:43;15.57;;;8.38;;
35558;SDS011;21661;50.794;-1.066;2023-04-10T05:20:09;20.73;;;8.30;;
35558;SDS011;21661;50.794;-1.066;2023-04-10T05:22:36;12.35;;;5.60;;
35558;SDS011;21661;50.794;-1.066;2023-04-10T05:25:01;13.07;;;4.38;;
35558;SDS011;21661;50.794;-1.066;2023-04-10T05:27:27;8.02;;;3.85;;
35558;SDS011;21661;50.794;-1.066;2023-04-10T05:29:52;8.90;;;3.75;;
35558;SDS011;21661;50.794;-1.066;2023-04-10T05:32:18;6.72;;;3.97;;
35558;SDS011;21661;50.794;-1.066;2023-04-10T05:34:44;7.22;;;3.70;;
35558;SDS011;21661;50.794;-1.066;2023-04-10T05:37:09;11.20;;;3.75;;
35558;SDS011;21661;50.794;-1.066;2023-04-10T05:39:36;12.75;;;4.50;;
35558;SDS011;21661;50.794;-1.066;2023-04-10T05:42:02;9.90;;;4.00;;
35558;SDS011;21661;50.794;-1.066;2023-04-10T05:44:28;10.15;;;4.38;;
35558;SDS011;21661;50.794;-1.066;2023-04-10T05:46:54;13.55;;;5.50;;
35558;SDS011;21661;50.794;-1.066;2023-04-10T05:49:19;15.30;;;6.07;;
35558;SDS011;21661;50.794;-1.066;2023-04-10T05:51:45;13.45;;;5.80;;
35558;SDS011;21661;50.794;-1.066;2023-04-10T05:54:14;12.93;;;6.10;;
35558;SDS011;21661;50.794;-1.066;2023-04-10T05:56:40;18.58;;;6.47;;
35558;SDS011;21661;50.794;-1.066;2023-04-10T05:59:06;25.48;;;6.82;;
35558;SDS011;21661;50.794;-1.066;2023-04-10T06:01:32;14.90;;;5.82;;
35558;SDS011;21661;50.794;-1.066;2023-04-10T06:03:57;16.95;;;6.78;;
35558;SDS011;21661;50.794;-1.066;2023-04-10T06:06:24;23.30;;;8.00;;
35558;SDS011;21661;50.794;-1.066;2023-04-10T06:08:50;16.98;;;7.38;;
35558;SDS011;21661;50.794;-1.066;2023-04-10T06:11:16;20.50;;;7.72;;
35558;SDS011;21661;50.794;-1.066;2023-04-10T06:13:42;27.05;;;7.70;;
35558;SDS011;21661;50.794;-1.066;2023-04-10T06:16:07;17.83;;;7.05;;
35558;SDS011;21661;50.794;-1.066;2023-04-10T06:18:33;22.92;;;7.63;;
35558;SDS011;21661;50.794;-1.066;2023-04-10T06:20:59;17.15;;;6.72;;
35558;SDS011;21661;50.794;-1.066;2023-04-10T06:23:26;19.63;;;7.20;;
35558;SDS011;21661;50.794;-1.066;2023-04-10T06:25:52;13.05;;;6.40;;
35558;SDS011;21661;50.794;-1.066;2023-04-10T06:28:19;19.75;;;6.78;;
35558;SDS011;21661;50.794;-1.066;2023-04-10T06:30:44;17.67;;;5.95;;
35558;SDS011;21661;50.794;-1.066;2023-04-10T06:33:10;15.40;;;5.88;;
35558;SDS011;21661;50.794;-1.066;2023-04-10T06:35:36;12.05;;;5.63;;
35558;SDS011;21661;50.794;-1.066;2023-04-10T06:38:01;13.45;;;5.90;;
35558;SDS011;21661;50.794;-1.066;2023-04-10T06:40:27;15.23;;;5.25;;
35558;SDS011;21661;50.794;-1.066;2023-04-10T06:42:54;14.18;;;4.63;;
35558;SDS011;21661;50.794;-1.066;2023-04-10T06:45:20;14.35;;;5.10;;
35558;SDS011;21661;50.794;-1.066;2023-04-10T06:47:46;17.10;;;5.40;;
35558;SDS011;21661;50.794;-1.066;2023-04-10T06:50:11;24.70;;;5.88;;
35558;SDS011;21661;50.794;-1.066;2023-04-10T06:52:37;11.13;;;5.35;;
35558;SDS011;21661;50.794;-1.066;2023-04-10T06:55:02;15.77;;;5.20;;
35558;SDS011;21661;50.794;-1.066;2023-04-10T06:57:28;16.48;;;5.43;;
35558;SDS011;21661;50.794;-1.066;2023-04-10T06:59:54;15.27;;;5.32;;
35558;SDS011;21661;50.794;-1.066;2023-04-10T07:02:20;18.95;;;5.78;;
35558;SDS011;21661;50.794;-1.066;2023-04-10T07:04:45;14.73;;;5.22;;
35558;SDS011;21661;50.794;-1.066;2023-04-10T07:07:11;18.70;;;4.82;;
35558;SDS011;21661;50.794;-1.066;2023-04-10T07:09:37;17.33;;;4.82;;
35558;SDS011;21661;50.794;-1.066;2023-04-10T07:12:03;15.85;;;5.03;;
35558;SDS011;21661;50.794;-1.066;2023-04-10T07:14:30;15.38;;;5.03;;
35558;SDS011;21661;50.794;-1.066;2023-04-10T07:16:58;16.92;;;4.78;;
35558;SDS011;21661;50.794;-1.066;2023-04-10T07:19:24;15.85;;;4.40;;
35558;SDS011;21661;50.794;-1.066;2023-04-10T07:21:50;18.48;;;4.57;;
35558;SDS011;21661;50.794;-1.066;2023-04-10T07:24:16;25.10;;;5.72;;
35558;SDS011;21661;50.794;-1.066;2023-04-10T07:26:45;13.50;;;4.75;;
35558;SDS011;21661;50.794;-1.066;2023-04-10T07:29:11;13.40;;;4.22;;
35558;SDS011;21661;50.794;-1.066;2023-04-10T07:31:37;12.73;;;4.18;;
35558;SDS011;21661;50.794;-1.066;2023-04-10T07:34:03;13.85;;;4.50;;
35558;SDS011;21661;50.794;-1.066;2023-04-10T07:36:29;12.52;;;4.50;;
35558;SDS011;21661;50.794;-1.066;2023-04-10T07:38:55;15.43;;;4.78;;
35558;SDS011;21661;50.794;-1.066;2023-04-10T07:41:21;13.50;;;4.50;;
35558;SDS011;21661;50.794;-1.066;2023-04-10T07:43:48;12.35;;;4.53;;
35558;SDS011;21661;50.794;-1.066;2023-04-10T07:46:13;15.27;;;4.60;;
35558;SDS011;21661;50.794;-1.066;2023-04-10T07:48:39;11.80;;;4.25;;
35558;SDS011;21661;50.794;-1.066;2023-04-10T07:51:05;12.90;;;3.50;;
35558;SDS011;21661;50.794;-1.066;2023-04-10T07:53:33;14.32;;;4.05;;
35558;SDS011;21661;50.794;-1.066;2023-04-10T07:56:00;16.20;;;4.07;;
35558;SDS011;21661;50.794;-1.066;2023-04-10T07:58:26;10.25;;;3.50;;
35558;SDS011;21661;50.794;-1.066;2023-04-10T08:00:51;10.93;;;3.70;;
35558;SDS011;21661;50.794;-1.066;2023-04-10T08:03:17;17.27;;;3.50;;
35558;SDS011;21661;50.794;-1.066;2023-04-10T08:05:43;10.45;;;2.97;;
35558;SDS011;21661;50.794;-1.066;2023-04-10T08:08:08;7.03;;;2.60;;
35558;SDS011;21661;50.794;-1.066;2023-04-10T08:10:37;13.95;;;2.72;;
35558;SDS011;21661;50.794;-1.066;2023-04-10T08:13:03;9.93;;;2.38;;
35558;SDS011;21661;50.794;-1.066;2023-04-10T08:15:29;10.25;;;2.50;;
35558;SDS011;21661;50.794;-1.066;2023-04-10T08:17:55;9.73;;;2.20;;
35558;SDS011;21661;50.794;-1.066;2023-04-10T08:20:20;11.23;;;3.08;;
35558;SDS011;21661;50.794;-1.066;2023-04-10T08:22:46;8.48;;;2.53;;
35558;SDS011;21661;50.794;-1.066;2023-04-10T08:25:12;8.55;;;2.13;;
35558;SDS011;21661;50.794;-1.066;2023-04-10T08:27:37;6.15;;;2.10;;
35558;SDS011;21661;50.794;-1.066;2023-04-10T08:30:03;9.15;;;2.22;;
35558;SDS011;21661;50.794;-1.066;2023-04-10T08:32:29;8.50;;;2.53;;
35558;SDS011;21661;50.794;-1.066;2023-04-10T08:34:55;8.10;;;2.72;;
35558;SDS011;21661;50.794;-1.066;2023-04-10T08:37:21;7.28;;;2.60;;
35558;SDS011;21661;50.794;-1.066;2023-04-10T08:39:46;11.13;;;3.08;;
35558;SDS011;21661;50.794;-1.066;2023-04-10T08:42:12;12.02;;;2.80;;
35558;SDS011;21661;50.794;-1.066;2023-04-10T08:44:38;5.00;;;2.20;;
35558;SDS011;21661;50.794;-1.066;2023-04-10T08:47:05;8.63;;;2.25;;
35558;SDS011;21661;50.794;-1.066;2023-04-10T08:52:32;5.72;;;2.55;;
35558;SDS011;21661;50.794;-1.066;2023-04-10T08:55:01;10.70;;;2.30;;
35558;SDS011;21661;50.794;-1.066;2023-04-10T08:57:32;9.23;;;2.58;;
35558;SDS011;21661;50.794;-1.066;2023-04-10T08:59:58;7.28;;;2.50;;
35558;SDS011;21661;50.794;-1.066;2023-04-10T09:02:24;7.28;;;2.38;;
35558;SDS011;21661;50.794;-1.066;2023-04-10T09:04:51;10.77;;;3.65;;
35558;SDS011;21661;50.794;-1.066;2023-04-10T09:07:20;8.02;;;3.90;;
35558;SDS011;21661;50.794;-1.066;2023-04-10T09:09:47;12.07;;;2.70;;
35558;SDS011;21661;50.794;-1.066;2023-04-10T09:12:13;7.05;;;2.70;;
35558;SDS011;21661;50.794;-1.066;2023-04-10T09:14:39;6.22;;;2.17;;
35558;SDS011;21661;50.794;-1.066;2023-04-10T09:19:48;4.90;;;2.20;;
35558;SDS011;21661;50.794;-1.066;2023-04-10T09:22:18;5.70;;;2.55;;
35558;SDS011;21661;50.794;-1.066;2023-04-10T09:24:57;6.32;;;2.50;;
35558;SDS011;21661;50.794;-1.066;2023-04-10T09:27:27;8.48;;;2.80;;
35558;SDS011;21661;50.794;-1.066;2023-04-10T09:29:59;12.73;;;3.45;;
35558;SDS011;21661;50.794;-1.066;2023-04-10T09:35:20;9.80;;;2.83;;
35558;SDS011;21661;50.794;-1.066;2023-04-10T09:37:46;10.02;;;2.38;;
35558;SDS011;21661;50.794;-1.066;2023-04-10T09:40:19;8.57;;;2.70;;
35558;SDS011;21661;50.794;-1.066;2023-04-10T09:42:45;6.13;;;1.75;;
35558;SDS011;21661;50.794;-1.066;2023-04-10T09:45:11;9.48;;;2.40;;
35558;SDS011;21661;50.794;-1.066;2023-04-10T09:47:36;11.73;;;3.15;;
35558;SDS011;21661;50.794;-1.066;2023-04-10T09:50:02;7.05;;;2.65;;
35558;SDS011;21661;50.794;-1.066;2023-04-10T09:52:33;13.60;;;3.38;;
35558;SDS011;21661;50.794;-1.066;2023-04-10T09:55:05;11.27;;;3.30;;
35558;SDS011;21661;50.794;-1.066;2023-04-10T09:57:34;13.13;;;3.80;;
35558;SDS011;21661;50.794;-1.066;2023-04-10T10:00:00;19.38;;;4.28;;
35558;SDS011;21661;50.794;-1.066;2023-04-10T10:02:29;18.95;;;4.10;;
35558;SDS011;21661;50.794;-1.066;2023-04-10T10:04:55;23.38;;;5.00;;
35558;SDS011;21661;50.794;-1.066;2023-04-10T10:07:24;20.13;;;4.55;;
35558;SDS011;21661;50.794;-1.066;2023-04-10T10:09:51;23.55;;;5.00;;
35558;SDS011;21661;50.794;-1.066;2023-04-10T10:12:18;27.42;;;5.30;;
35558;SDS011;21661;50.794;-1.066;2023-04-10T10:14:56;24.20;;;5.22;;
35558;SDS011;21661;50.794;-1.066;2023-04-10T10:17:33;25.80;;;5.88;;
35558;SDS011;21661;50.794;-1.066;2023-04-10T10:20:04;30.75;;;5.60;;
35558;SDS011;21661;50.794;-1.066;2023-04-10T10:22:33;21.70;;;4.97;;
35558;SDS011;21661;50.794;-1.066;2023-04-10T10:25:01;26.45;;;4.88;;
35558;SDS011;21661;50.794;-1.066;2023-04-10T10:27:27;26.70;;;5.15;;
35558;SDS011;21661;50.794;-1.066;2023-04-10T10:30:00;25.65;;;5.90;;
35558;SDS011;21661;50.794;-1.066;2023-04-10T10:32:27;26.45;;;5.32;;
35558;SDS011;21661;50.794;-1.066;2023-04-10T10:34:54;27.80;;;6.72;;
35558;SDS011;21661;50.794;-1.066;2023-04-10T10:37:21;22.85;;;5.00;;
35558;SDS011;21661;50.794;-1.066;2023-04-10T10:45:20;28.67;;;5.50;;
35558;SDS011;21661;50.794;-1.066;2023-04-10T10:47:55;24.65;;;5.55;;
35558;SDS011;21661;50.794;-1.066;2023-04-10T10:50:20;27.23;;;6.20;;
35558;SDS011;21661;50.794;-1.066;2023-04-10T10:52:54;29.63;;;5.85;;
35558;SDS011;21661;50.794;-1.066;2023-04-10T10:57:49;27.52;;;5.53;;
35558;SDS011;21661;50.794;-1.066;2023-04-10T11:00:16;36.30;;;5.70;;
35558;SDS011;21661;50.794;-1.066;2023-04-10T11:02:42;33.67;;;7.30;;
35558;SDS011;21661;50.794;-1.066;2023-04-10T11:05:08;29.15;;;6.20;;
35558;SDS011;21661;50.794;-1.066;2023-04-10T11:13:30;26.88;;;5.57;;
35558;SDS011;21661;50.794;-1.066;2023-04-10T11:15:56;37.17;;;5.05;;
35558;SDS011;21661;50.794;-1.066;2023-04-10T11:21:28;32.97;;;4.70;;
35558;SDS011;21661;50.794;-1.066;2023-04-10T11:29:03;32.97;;;5.68;;
35558;SDS011;21661;50.794;-1.066;2023-04-10T11:31:31;31.42;;;5.88;;
35558;SDS011;21661;50.794;-1.066;2023-04-10T11:36:33;29.48;;;5.72;;
35558;SDS011;21661;50.794;-1.066;2023-04-10T11:39:03;29.08;;;5.93;;
35558;SDS011;21661;50.794;-1.066;2023-04-10T11:41:44;33.85;;;5.68;;
35558;SDS011;21661;50.794;-1.066;2023-04-10T11:44:15;34.80;;;6.03;;
35558;SDS011;21661;50.794;-1.066;2023-04-10T11:46:50;26.02;;;5.20;;
35558;SDS011;21661;50.794;-1.066;2023-04-10T11:49:20;32.70;;;5.55;;
35558;SDS011;21661;50.794;-1.066;2023-04-10T11:51:48;33.00;;;6.30;;
35558;SDS011;21661;50.794;-1.066;2023-04-10T11:54:18;31.33;;;6.07;;
35558;SDS011;21661;50.794;-1.066;2023-04-10T11:57:04;32.00;;;5.47;;
35558;SDS011;21661;50.794;-1.066;2023-04-10T11:59:33;30.67;;;5.47;;
35558;SDS011;21661;50.794;-1.066;2023-04-10T12:02:09;26.38;;;6.20;;
35558;SDS011;21661;50.794;-1.066;2023-04-10T12:04:40;32.65;;;6.63;;
35558;SDS011;21661;50.794;-1.066;2023-04-10T12:07:06;27.08;;;6.15;;
35558;SDS011;21661;50.794;-1.066;2023-04-10T12:09:32;30.92;;;5.82;;
35558;SDS011;21661;50.794;-1.066;2023-04-10T12:11:58;28.65;;;6.10;;
35558;SDS011;21661;50.794;-1.066;2023-04-10T12:14:30;31.60;;;5.15;;
35558;SDS011;21661;50.794;-1.066;2023-04-10T12:17:00;27.67;;;5.80;;
35558;SDS011;21661;50.794;-1.066;2023-04-10T12:19:27;28.83;;;6.18;;
35558;SDS011;21661;50.794;-1.066;2023-04-10T12:21:53;30.40;;;5.57;;
35558;SDS011;21661;50.794;-1.066;2023-04-10T12:24:40;45.30;;;6.68;;
35558;SDS011;21661;50.794;-1.066;2023-04-10T12:29:45;28.27;;;7.15;;
35558;SDS011;21661;50.794;-1.066;2023-04-10T12:32:11;30.50;;;4.60;;
35558;SDS011;21661;50.794;-1.066;2023-04-10T12:34:37;24.23;;;4.53;;
35558;SDS011;21661;50.794;-1.066;2023-04-10T12:37:03;25.75;;;5.95;;
35558;SDS011;21661;50.794;-1.066;2023-04-10T12:39:30;26.83;;;5.15;;
35558;SDS011;21661;50.794;-1.066;2023-04-10T12:42:12;29.35;;;5.53;;
35558;SDS011;21661;50.794;-1.066;2023-04-10T12:44:58;31.33;;;4.97;;
35558;SDS011;21661;50.794;-1.066;2023-04-10T12:47:25;34.10;;;6.28;;
35558;SDS011;21661;50.794;-1.066;2023-04-10T12:52:39;29.00;;;5.93;;
35558;SDS011;21661;50.794;-1.066;2023-04-10T12:55:10;30.42;;;6.18;;
35558;SDS011;21661;50.794;-1.066;2023-04-10T12:57:36;34.90;;;7.00;;
35558;SDS011;21661;50.794;-1.066;2023-04-10T13:00:03;29.30;;;5.15;;
35558;SDS011;21661;50.794;-1.066;2023-04-10T13:02:30;27.83;;;5.35;;
35558;SDS011;21661;50.794;-1.066;2023-04-10T13:04:56;30.20;;;5.20;;
35558;SDS011;21661;50.794;-1.066;2023-04-10T13:07:23;41.83;;;6.25;;
35558;SDS011;21661;50.794;-1.066;2023-04-10T13:09:49;33.75;;;6.13;;
35558;SDS011;21661;50.794;-1.066;2023-04-10T13:12:14;27.92;;;5.78;;
35558;SDS011;21661;50.794;-1.066;2023-04-10T13:14:40;28.00;;;5.25;;
35558;SDS011;21661;50.794;-1.066;2023-04-10T13:17:06;26.92;;;4.88;;
35558;SDS011;21661;50.794;-1.066;2023-04-10T13:19:32;25.58;;;5.25;;
35558;SDS011;21661;50.794;-1.066;2023-04-10T13:21:57;30.15;;;5.60;;
35558;SDS011;21661;50.794;-1.066;2023-04-10T13:24:25;27.08;;;5.68;;
35558;SDS011;21661;50.794;-1.066;2023-04-10T13:26:51;36.17;;;5.93;;
35558;SDS011;21661;50.794;-1.066;2023-04-10T13:29:18;30.92;;;5.00;;
35558;SDS011;21661;50.794;-1.066;2023-04-10T13:31:44;28.33;;;5.32;;
35558;SDS011;21661;50.794;-1.066;2023-04-10T13:34:09;31.85;;;6.57;;
35558;SDS011;21661;50.794;-1.066;2023-04-10T13:36:38;30.10;;;5.15;;
35558;SDS011;21661;50.794;-1.066;2023-04-10T13:39:04;33.30;;;5.53;;
35558;SDS011;21661;50.794;-1.066;2023-04-10T13:41:30;35.25;;;7.03;;
35558;SDS011;21661;50.794;-1.066;2023-04-10T13:43:55;34.13;;;6.38;;
35558;SDS011;21661;50.794;-1.066;2023-04-10T13:46:21;27.58;;;4.85;;
35558;SDS011;21661;50.794;-1.066;2023-04-10T13:48:47;30.25;;;6.85;;
35558;SDS011;21661;50.794;-1.066;2023-04-10T13:51:12;28.65;;;5.45;;
35558;SDS011;21661;50.794;-1.066;2023-04-10T13:53:38;26.85;;;5.38;;
35558;SDS011;21661;50.794;-1.066;2023-04-10T13:56:04;34.50;;;5.45;;
35558;SDS011;21661;50.794;-1.066;2023-04-10T13:58:30;30.73;;;5.63;;
35558;SDS011;21661;50.794;-1.066;2023-04-10T14:00:58;25.70;;;4.90;;
35558;SDS011;21661;50.794;-1.066;2023-04-10T14:03:24;31.40;;;5.18;;
35558;SDS011;21661;50.794;-1.066;2023-04-10T14:05:49;21.77;;;4.50;;
35558;SDS011;21661;50.794;-1.066;2023-04-10T14:08:16;30.40;;;5.43;;
35558;SDS011;21661;50.794;-1.066;2023-04-10T14:10:42;25.50;;;4.47;;
35558;SDS011;21661;50.794;-1.066;2023-04-10T14:13:09;32.17;;;4.05;;
35558;SDS011;21661;50.794;-1.066;2023-04-10T14:15:35;28.33;;;5.47;;
35558;SDS011;21661;50.794;-1.066;2023-04-10T14:18:01;28.35;;;5.10;;
35558;SDS011;21661;50.794;-1.066;2023-04-10T14:20:27;28.83;;;4.70;;
35558;SDS011;21661;50.794;-1.066;2023-04-10T14:22:53;28.58;;;4.75;;
35558;SDS011;21661;50.794;-1.066;2023-04-10T14:25:18;26.00;;;4.70;;
35558;SDS011;21661;50.794;-1.066;2023-04-10T14:27:44;24.65;;;5.45;;
35558;SDS011;21661;50.794;-1.066;2023-04-10T14:30:10;27.02;;;6.43;;
35558;SDS011;21661;50.794;-1.066;2023-04-10T14:32:37;25.05;;;5.03;;
35558;SDS011;21661;50.794;-1.066;2023-04-10T14:35:03;22.63;;;3.85;;
35558;SDS011;21661;50.794;-1.066;2023-04-10T14:37:29;27.30;;;4.20;;
35558;SDS011;21661;50.794;-1.066;2023-04-10T14:39:55;26.85;;;4.78;;
35558;SDS011;21661;50.794;-1.066;2023-04-10T14:42:20;22.80;;;4.22;;
35558;SDS011;21661;50.794;-1.066;2023-04-10T14:44:47;26.52;;;4.88;;
35558;SDS011;21661;50.794;-1.066;2023-04-10T14:47:13;23.25;;;4.63;;
35558;SDS011;21661;50.794;-1.066;2023-04-10T14:49:39;26.25;;;4.13;;
35558;SDS011;21661;50.794;-1.066;2023-04-10T14:52:05;25.85;;;3.95;;
35558;SDS011;21661;50.794;-1.066;2023-04-10T14:54:31;29.40;;;5.10;;
35558;SDS011;21661;50.794;-1.066;2023-04-10T14:56:57;24.00;;;4.90;;
35558;SDS011;21661;50.794;-1.066;2023-04-10T14:59:22;24.77;;;4.05;;
35558;SDS011;21661;50.794;-1.066;2023-04-10T15:01:48;17.88;;;4.18;;